sensor_id;sensor_type;location;lat;lon;timestamp;pressure;altitude;pressure_sealevel;temperature;humidity
75424;BME280;64005;55.160;36.002;2022-11-22T00:01:06;98636.97;;;-3.27;78.15
75424;BME280;64005;55.160;36.002;2022-11-22T00:03:32;98640.03;;;-3.18;77.74
75424;BME280;64005;55.160;36.002;2022-11-22T00:05:57;98643.34;;;-3.16;78.00
75424;BME280;64005;55.160;36.002;2022-11-22T00:08:23;98632.69;;;-3.17;77.99
75424;BME280;64005;55.160;36.002;2022-11-22T00:10:50;98623.91;;;-3.25;78.08
75424;BME280;64005;55.160;36.002;2022-11-22T00:13:18;98626.16;;;-3.22;77.98
75424;BME280;64005;55.160;36.002;2022-11-22T00:15:57;98616.91;;;-3.21;77.52
75424;BME280;64005;55.160;36.002;2022-11-22T00:18:23;98603.78;;;-3.29;78.09
75424;BME280;64005;55.160;36.002;2022-11-22T00:20:49;98606.84;;;-3.20;78.20
75424;BME280;64005;55.160;36.002;2022-11-22T00:23:15;98604.97;;;-3.19;78.05
75424;BME280;64005;55.160;36.002;2022-11-22T00:25:41;98595.09;;;-3.26;77.92
75424;BME280;64005;55.160;36.002;2022-11-22T00:28:06;98591.59;;;-3.21;78.02
75424;BME280;64005;55.160;36.002;2022-11-22T00:30:32;98596.72;;;-3.25;77.92
75424;BME280;64005;55.160;36.002;2022-11-22T00:32:58;98595.97;;;-3.20;78.21
75424;BME280;64005;55.160;36.002;2022-11-22T00:35:24;98578.75;;;-3.26;78.06
75424;BME280;64005;55.160;36.002;2022-11-22T00:37:49;98581.28;;;-3.19;78.33
75424;BME280;64005;55.160;36.002;2022-11-22T00:40:15;98560.63;;;-3.20;78.22
75424;BME280;64005;55.160;36.002;2022-11-22T00:42:41;98566.88;;;-3.19;78.18
75424;BME280;64005;55.160;36.002;2022-11-22T00:45:07;98553.81;;;-3.17;78.11
75424;BME280;64005;55.160;36.002;2022-11-22T00:47:33;98550.84;;;-3.16;78.18
75424;BME280;64005;55.160;36.002;2022-11-22T00:49:59;98536.38;;;-3.22;78.14
75424;BME280;64005;55.160;36.002;2022-11-22T00:52:24;98546.22;;;-3.15;78.11
75424;BME280;64005;55.160;36.002;2022-11-22T00:54:50;98526.94;;;-3.14;78.19
75424;BME280;64005;55.160;36.002;2022-11-22T00:57:16;98533.19;;;-3.13;78.27
75424;BME280;64005;55.160;36.002;2022-11-22T00:59:42;98536.75;;;-3.13;78.06
75424;BME280;64005;55.160;36.002;2022-11-22T01:02:07;98522.56;;;-3.15;78.08
75424;BME280;64005;55.160;36.002;2022-11-22T01:04:33;98495.50;;;-3.32;78.10
75424;BME280;64005;55.160;36.002;2022-11-22T01:06:59;98513.84;;;-3.17;78.32
75424;BME280;64005;55.160;36.002;2022-11-22T01:09:25;98519.84;;;-3.15;78.16
75424;BME280;64005;55.160;36.002;2022-11-22T01:11:51;98521.75;;;-3.15;78.21
75424;BME280;64005;55.160;36.002;2022-11-22T01:14:17;98505.91;;;-3.24;78.61
75424;BME280;64005;55.160;36.002;2022-11-22T01:16:44;98505.69;;;-3.17;77.97
75424;BME280;64005;55.160;36.002;2022-11-22T01:19:10;98492.31;;;-3.24;nan
75424;BME280;64005;55.160;36.002;2022-11-22T01:21:36;98500.00;;;-3.15;78.38
75424;BME280;64005;55.160;36.002;2022-11-22T01:24:02;98503.78;;;-3.16;77.98
75424;BME280;64005;55.160;36.002;2022-11-22T01:26:27;98478.94;;;-3.25;78.50
75424;BME280;64005;55.160;36.002;2022-11-22T01:28:53;98485.00;;;-3.18;78.70
75424;BME280;64005;55.160;36.002;2022-11-22T01:31:19;98476.81;;;-3.23;78.50
75424;BME280;64005;55.160;36.002;2022-11-22T01:33:45;98469.47;;;-3.23;78.49
75424;BME280;64005;55.160;36.002;2022-11-22T01:36:11;98465.56;;;-3.32;78.28
75424;BME280;64005;55.160;36.002;2022-11-22T01:38:37;98467.09;;;-3.14;78.70
75424;BME280;64005;55.160;36.002;2022-11-22T01:41:02;98429.97;;;-3.30;78.49
75424;BME280;64005;55.160;36.002;2022-11-22T01:43:28;98457.53;;;-3.16;78.21
75424;BME280;64005;55.160;36.002;2022-11-22T01:46:00;98444.25;;;-3.13;78.65
75424;BME280;64005;55.160;36.002;2022-11-22T01:48:41;98452.13;;;-3.11;78.49
75424;BME280;64005;55.160;36.002;2022-11-22T01:51:25;98448.34;;;-3.10;78.70
75424;BME280;64005;55.160;36.002;2022-11-22T01:53:56;98459.22;;;-3.10;78.80
75424;BME280;64005;55.160;36.002;2022-11-22T01:56:24;98447.50;;;-3.16;78.38
75424;BME280;64005;55.160;36.002;2022-11-22T01:58:59;98450.50;;;-3.12;79.05
75424;BME280;64005;55.160;36.002;2022-11-22T02:01:27;98454.13;;;-3.02;78.90
75424;BME280;64005;55.160;36.002;2022-11-22T02:03:55;98437.78;;;-3.02;78.47
75424;BME280;64005;55.160;36.002;2022-11-22T02:06:27;98417.00;;;-3.18;78.54
75424;BME280;64005;55.160;36.002;2022-11-22T02:09:08;98438.91;;;-2.98;78.77
75424;BME280;64005;55.160;36.002;2022-11-22T02:11:38;98423.13;;;-2.96;78.40
75424;BME280;64005;55.160;36.002;2022-11-22T02:14:08;98412.25;;;-2.96;79.03
75424;BME280;64005;55.160;36.002;2022-11-22T02:16:34;98413.34;;;-2.92;78.60
75424;BME280;64005;55.160;36.002;2022-11-22T02:19:03;98418.53;;;-2.90;78.65
75424;BME280;64005;55.160;36.002;2022-11-22T02:21:29;98387.25;;;-2.93;78.91
75424;BME280;64005;55.160;36.002;2022-11-22T02:24:08;98396.78;;;-2.90;78.88
75424;BME280;64005;55.160;36.002;2022-11-22T02:26:37;98376.28;;;-3.03;78.49
75424;BME280;64005;55.160;36.002;2022-11-22T02:29:11;98393.00;;;-2.84;79.14
75424;BME280;64005;55.160;36.002;2022-11-22T02:31:44;98394.06;;;-2.85;79.01
75424;BME280;64005;55.160;36.002;2022-11-22T02:34:11;98384.28;;;-2.86;79.60
75424;BME280;64005;55.160;36.002;2022-11-22T02:36:41;98391.91;;;-2.83;78.99
75424;BME280;64005;55.160;36.002;2022-11-22T02:39:09;98385.16;;;-2.75;78.97
75424;BME280;64005;55.160;36.002;2022-11-22T02:41:36;98391.97;;;-2.73;79.31
75424;BME280;64005;55.160;36.002;2022-11-22T02:44:03;98382.19;;;-2.69;78.92
75424;BME280;64005;55.160;36.002;2022-11-22T02:46:32;98376.19;;;-2.71;79.30
75424;BME280;64005;55.160;36.002;2022-11-22T02:48:58;98383.28;;;-2.65;79.40
75424;BME280;64005;55.160;36.002;2022-11-22T02:51:23;98367.25;;;-2.61;79.27
75424;BME280;64005;55.160;36.002;2022-11-22T02:53:51;98362.63;;;-2.61;79.46
75424;BME280;64005;55.160;36.002;2022-11-22T02:56:18;98371.88;;;-2.57;79.06
75424;BME280;64005;55.160;36.002;2022-11-22T02:58:44;98364.78;;;-2.58;79.33
75424;BME280;64005;55.160;36.002;2022-11-22T03:01:11;98367.56;;;-2.53;78.90
75424;BME280;64005;55.160;36.002;2022-11-22T03:03:37;98347.13;;;-2.50;79.25
75424;BME280;64005;55.160;36.002;2022-11-22T03:06:03;98349.84;;;-2.50;79.27
75424;BME280;64005;55.160;36.002;2022-11-22T03:08:29;98334.59;;;-2.56;79.29
75424;BME280;64005;55.160;36.002;2022-11-22T03:10:58;98338.69;;;-2.49;79.68
75424;BME280;64005;55.160;36.002;2022-11-22T03:13:24;98332.44;;;-2.44;79.32
75424;BME280;64005;55.160;36.002;2022-11-22T03:15:50;98334.63;;;-2.41;79.07
75424;BME280;64005;55.160;36.002;2022-11-22T03:18:16;98334.91;;;-2.43;79.83
75424;BME280;64005;55.160;36.002;2022-11-22T03:20:42;98322.09;;;-2.42;79.68
75424;BME280;64005;55.160;36.002;2022-11-22T03:23:07;98325.09;;;-2.38;79.77
75424;BME280;64005;55.160;36.002;2022-11-22T03:25:36;98333.00;;;-2.37;79.70
75424;BME280;64005;55.160;36.002;2022-11-22T03:28:02;98319.38;;;-2.37;79.91
75424;BME280;64005;55.160;36.002;2022-11-22T03:30:28;98312.84;;;-2.41;79.94
75424;BME280;64005;55.160;36.002;2022-11-22T03:32:54;98317.22;;;-2.35;79.91
75424;BME280;64005;55.160;36.002;2022-11-22T03:35:20;98310.69;;;-2.34;80.08
75424;BME280;64005;55.160;36.002;2022-11-22T03:37:46;98312.03;;;-2.31;79.98
75424;BME280;64005;55.160;36.002;2022-11-22T03:40:12;98306.31;;;-2.30;79.90
75424;BME280;64005;55.160;36.002;2022-11-22T03:42:38;98297.88;;;-2.28;79.80
75424;BME280;64005;55.160;36.002;2022-11-22T03:45:05;98295.97;;;-2.23;80.22
75424;BME280;64005;55.160;36.002;2022-11-22T03:47:31;98293.25;;;-2.23;80.48
75424;BME280;64005;55.160;36.002;2022-11-22T03:49:57;98291.91;;;-2.15;80.25
75424;BME280;64005;55.160;36.002;2022-11-22T03:52:22;98279.94;;;-2.14;80.43
75424;BME280;64005;55.160;36.002;2022-11-22T03:54:48;98272.84;;;-2.10;80.06
75424;BME280;64005;55.160;36.002;2022-11-22T03:57:14;98275.28;;;-2.04;79.84
75424;BME280;64005;55.160;36.002;2022-11-22T03:59:42;98272.84;;;-2.00;80.09
75424;BME280;64005;55.160;36.002;2022-11-22T04:02:08;98261.13;;;-1.95;80.67
75424;BME280;64005;55.160;36.002;2022-11-22T04:04:33;98257.03;;;-1.93;80.47
75424;BME280;64005;55.160;36.002;2022-11-22T04:06:59;98256.47;;;-1.90;80.22
75424;BME280;64005;55.160;36.002;2022-11-22T04:09:25;98255.94;;;-1.87;80.33
75424;BME280;64005;55.160;36.002;2022-11-22T04:11:51;98251.31;;;-1.81;80.87
75424;BME280;64005;55.160;36.002;2022-11-22T04:14:16;98249.91;;;-1.79;80.31
75424;BME280;64005;55.160;36.002;2022-11-22T04:17:00;98239.03;;;-1.74;80.58
75424;BME280;64005;55.160;36.002;2022-11-22T04:19:29;98248.28;;;-1.70;80.34
75424;BME280;64005;55.160;36.002;2022-11-22T04:21:55;98237.91;;;-1.63;80.31
75424;BME280;64005;55.160;36.002;2022-11-22T04:24:21;98240.06;;;-1.54;80.13
75424;BME280;64005;55.160;36.002;2022-11-22T04:27:05;98237.88;;;-1.47;80.66
75424;BME280;64005;55.160;36.002;2022-11-22T04:29:30;98195.09;;;-1.72;80.90
75424;BME280;64005;55.160;36.002;2022-11-22T04:31:56;98238.91;;;-1.38;80.92
75424;BME280;64005;55.160;36.002;2022-11-22T04:34:40;98237.81;;;-1.27;80.29
75424;BME280;64005;55.160;36.002;2022-11-22T04:37:06;98224.72;;;-1.30;79.85
75424;BME280;64005;55.160;36.002;2022-11-22T04:39:32;98240.50;;;-1.17;79.85
75424;BME280;64005;55.160;36.002;2022-11-22T04:41:58;98238.84;;;-1.18;79.75
75424;BME280;64005;55.160;36.002;2022-11-22T04:44:45;98242.16;;;-1.26;80.70
75424;BME280;64005;55.160;36.002;2022-11-22T04:47:13;98239.41;;;-1.26;80.38
75424;BME280;64005;55.160;36.002;2022-11-22T04:50:04;98236.44;;;-1.30;80.70
75424;BME280;64005;55.160;36.002;2022-11-22T04:52:53;98243.25;;;-1.32;80.73
75424;BME280;64005;55.160;36.002;2022-11-22T04:55:19;98233.47;;;-1.33;81.02
75424;BME280;64005;55.160;36.002;2022-11-22T04:57:45;98245.19;;;-1.28;81.59
75424;BME280;64005;55.160;36.002;2022-11-22T05:00:11;98235.03;;;-1.17;81.50
75424;BME280;64005;55.160;36.002;2022-11-22T05:02:37;98240.75;;;-1.18;81.23
75424;BME280;64005;55.160;36.002;2022-11-22T05:05:03;98218.41;;;-1.26;81.54
75424;BME280;64005;55.160;36.002;2022-11-22T05:07:29;98233.13;;;-1.16;81.51
75424;BME280;64005;55.160;36.002;2022-11-22T05:09:55;98229.31;;;-1.15;80.52
75424;BME280;64005;55.160;36.002;2022-11-22T05:12:20;98236.66;;;-1.16;80.95
75424;BME280;64005;55.160;36.002;2022-11-22T05:14:46;98229.31;;;-1.15;81.52
75424;BME280;64005;55.160;36.002;2022-11-22T05:17:12;98228.72;;;-1.12;81.75
75424;BME280;64005;55.160;36.002;2022-11-22T05:19:38;98212.09;;;-1.11;81.47
75424;BME280;64005;55.160;36.002;2022-11-22T05:22:03;98220.53;;;-1.12;81.71
75424;BME280;64005;55.160;36.002;2022-11-22T05:24:29;98228.44;;;-1.11;81.17
75424;BME280;64005;55.160;36.002;2022-11-22T05:26:55;98220.78;;;-1.04;81.12
75424;BME280;64005;55.160;36.002;2022-11-22T05:29:21;98225.94;;;-0.97;81.77
75424;BME280;64005;55.160;36.002;2022-11-22T05:31:47;98220.75;;;-0.94;81.55
75424;BME280;64005;55.160;36.002;2022-11-22T05:34:12;98211.16;;;-0.91;80.82
75424;BME280;64005;55.160;36.002;2022-11-22T05:36:38;98210.66;;;-0.93;81.16
75424;BME280;64005;55.160;36.002;2022-11-22T05:39:04;98181.22;;;-1.06;81.03
75424;BME280;64005;55.160;36.002;2022-11-22T05:41:30;98209.53;;;-0.92;81.63
75424;BME280;64005;55.160;36.002;2022-11-22T05:43:56;98194.53;;;-0.95;81.66
75424;BME280;64005;55.160;36.002;2022-11-22T05:46:26;98192.28;;;-0.83;81.82
75424;BME280;64005;55.160;36.002;2022-11-22T05:48:54;98206.94;;;-0.68;82.19
75424;BME280;64005;55.160;36.002;2022-11-22T05:51:25;98202.00;;;-0.61;81.72
75424;BME280;64005;55.160;36.002;2022-11-22T05:53:52;98177.72;;;-0.68;81.84
75424;BME280;64005;55.160;36.002;2022-11-22T05:56:22;98180.09;;;-0.56;81.33
75424;BME280;64005;55.160;36.002;2022-11-22T05:58:49;98197.34;;;-0.61;81.62
75424;BME280;64005;55.160;36.002;2022-11-22T06:01:20;98193.22;;;-0.58;82.01
75424;BME280;64005;55.160;36.002;2022-11-22T06:03:47;98185.91;;;-0.68;81.58
75424;BME280;64005;55.160;36.002;2022-11-22T06:06:13;98194.63;;;-0.61;82.22
75424;BME280;64005;55.160;36.002;2022-11-22T06:08:41;98197.06;;;-0.64;81.46
75424;BME280;64005;55.160;36.002;2022-11-22T06:11:14;98178.25;;;-0.66;81.13
75424;BME280;64005;55.160;36.002;2022-11-22T06:13:42;98191.63;;;-0.64;81.62
75424;BME280;64005;55.160;36.002;2022-11-22T06:16:12;98195.72;;;-0.62;81.60
75424;BME280;64005;55.160;36.002;2022-11-22T06:18:39;98181.81;;;-0.70;82.22
75424;BME280;64005;55.160;36.002;2022-11-22T06:21:13;98185.63;;;-0.66;82.27
75424;BME280;64005;55.160;36.002;2022-11-22T06:23:39;98189.69;;;-0.64;82.35
75424;BME280;64005;55.160;36.002;2022-11-22T06:26:09;98177.69;;;-0.63;82.06
75424;BME280;64005;55.160;36.002;2022-11-22T06:28:37;98182.56;;;-0.60;81.74
75424;BME280;64005;55.160;36.002;2022-11-22T06:31:17;98167.81;;;-0.59;81.76
75424;BME280;64005;55.160;36.002;2022-11-22T06:33:43;98166.97;;;-0.54;82.14
75424;BME280;64005;55.160;36.002;2022-11-22T06:36:14;98169.41;;;-0.53;82.29
75424;BME280;64005;55.160;36.002;2022-11-22T06:38:41;98173.84;;;-0.62;82.12
75424;BME280;64005;55.160;36.002;2022-11-22T06:41:15;98136.78;;;-0.73;81.68
75424;BME280;64005;55.160;36.002;2022-11-22T06:43:43;98032.69;;;-1.34;81.62
75424;BME280;64005;55.160;36.002;2022-11-22T06:46:10;98150.28;;;-0.53;81.66
75424;BME280;64005;55.160;36.002;2022-11-22T06:48:38;98160.88;;;-0.46;82.22
75424;BME280;64005;55.160;36.002;2022-11-22T06:51:16;98108.38;;;-0.72;82.00
75424;BME280;64005;55.160;36.002;2022-11-22T06:53:43;98140.09;;;-0.42;82.49
75424;BME280;64005;55.160;36.002;2022-11-22T06:56:14;98158.56;;;-0.29;82.27
75424;BME280;64005;55.160;36.002;2022-11-22T06:58:40;98154.44;;;-0.26;81.55
75424;BME280;64005;55.160;36.002;2022-11-22T07:01:12;98154.06;;;-0.15;82.45
75424;BME280;64005;55.160;36.002;2022-11-22T07:03:38;98148.63;;;-0.15;81.56
75424;BME280;64005;55.160;36.002;2022-11-22T07:06:06;98150.41;;;-0.05;81.33
75424;BME280;64005;55.160;36.002;2022-11-22T07:08:33;98150.41;;;-0.05;81.75
75424;BME280;64005;55.160;36.002;2022-11-22T07:11:10;98156.97;;;-0.01;81.68
75424;BME280;64005;55.160;36.002;2022-11-22T07:13:36;98148.97;;;0.03;81.55
75424;BME280;64005;55.160;36.002;2022-11-22T07:16:05;98150.06;;;0.07;81.45
75424;BME280;64005;55.160;36.002;2022-11-22T07:18:31;98149.44;;;0.10;82.19
75424;BME280;64005;55.160;36.002;2022-11-22T07:21:16;98105.38;;;-0.13;81.56
75424;BME280;64005;55.160;36.002;2022-11-22T07:23:44;98143.41;;;0.13;81.97
75424;BME280;64005;55.160;36.002;2022-11-22T07:26:11;98144.19;;;0.18;81.08
75424;BME280;64005;55.160;36.002;2022-11-22T07:28:38;98145.00;;;0.19;81.41
75424;BME280;64005;55.160;36.002;2022-11-22T07:31:06;98140.09;;;0.16;82.17
75424;BME280;64005;55.160;36.002;2022-11-22T07:33:32;98142.28;;;0.14;82.49
75424;BME280;64005;55.160;36.002;2022-11-22T07:36:06;98148.06;;;0.12;81.96
75424;BME280;64005;55.160;36.002;2022-11-22T07:38:34;98130.38;;;0.05;82.37
75424;BME280;64005;55.160;36.002;2022-11-22T07:41:00;98133.59;;;0.12;81.51
75424;BME280;64005;55.160;36.002;2022-11-22T07:43:26;98136.59;;;0.10;81.75
75424;BME280;64005;55.160;36.002;2022-11-22T07:45:52;98144.75;;;0.15;81.61
75424;BME280;64005;55.160;36.002;2022-11-22T07:48:18;98138.22;;;0.11;81.88
75424;BME280;64005;55.160;36.002;2022-11-22T07:50:43;98134.50;;;0.02;81.76
75424;BME280;64005;55.160;36.002;2022-11-22T07:53:09;98137.69;;;0.09;81.49
75424;BME280;64005;55.160;36.002;2022-11-22T07:55:35;98131.66;;;0.12;82.37
75424;BME280;64005;55.160;36.002;2022-11-22T07:58:01;98125.03;;;0.18;82.33
75424;BME280;64005;55.160;36.002;2022-11-22T08:00:27;98124.44;;;0.21;82.49
75424;BME280;64005;55.160;36.002;2022-11-22T08:02:53;98129.09;;;0.21;82.12
75424;BME280;64005;55.160;36.002;2022-11-22T08:05:20;98123.34;;;0.22;81.73
75424;BME280;64005;55.160;36.002;2022-11-22T08:07:47;98123.34;;;0.22;82.38
75424;BME280;64005;55.160;36.002;2022-11-22T08:10:13;98116.22;;;0.21;81.65
75424;BME280;64005;55.160;36.002;2022-11-22T08:12:40;98121.72;;;0.21;82.48
75424;BME280;64005;55.160;36.002;2022-11-22T08:15:07;98116.22;;;0.21;82.47
75424;BME280;64005;55.160;36.002;2022-11-22T08:17:33;98113.47;;;0.26;81.65
75424;BME280;64005;55.160;36.002;2022-11-22T08:19:59;98109.66;;;0.22;82.42
75424;BME280;64005;55.160;36.002;2022-11-22T08:22:25;98112.66;;;0.26;81.83
75424;BME280;64005;55.160;36.002;2022-11-22T08:24:51;98113.91;;;0.33;82.34
75424;BME280;64005;55.160;36.002;2022-11-22T08:27:17;98123.47;;;0.36;82.52
75424;BME280;64005;55.160;36.002;2022-11-22T08:29:43;98116.88;;;0.37;82.12
75424;BME280;64005;55.160;36.002;2022-11-22T08:32:09;98096.34;;;0.39;82.14
75424;BME280;64005;55.160;36.002;2022-11-22T08:34:34;98106.16;;;0.40;82.12
75424;BME280;64005;55.160;36.002;2022-11-22T08:37:00;98104.19;;;0.46;81.96
75424;BME280;64005;55.160;36.002;2022-11-22T08:39:26;98105.81;;;0.47;82.05
75424;BME280;64005;55.160;36.002;2022-11-22T08:41:52;98097.91;;;0.46;82.50
75424;BME280;64005;55.160;36.002;2022-11-22T08:44:18;98091.63;;;0.45;81.78
75424;BME280;64005;55.160;36.002;2022-11-22T08:46:43;98084.81;;;0.43;82.60
75424;BME280;64005;55.160;36.002;2022-11-22T08:49:10;98094.81;;;0.52;82.44
75424;BME280;64005;55.160;36.002;2022-11-22T08:51:36;98095.63;;;0.53;82.51
75424;BME280;64005;55.160;36.002;2022-11-22T08:54:01;98092.59;;;0.54;82.23
75424;BME280;64005;55.160;36.002;2022-11-22T08:56:27;98080.97;;;0.44;81.63
75424;BME280;64005;55.160;36.002;2022-11-22T08:58:53;98093.03;;;0.61;81.66
75424;BME280;64005;55.160;36.002;2022-11-22T09:01:20;98088.09;;;0.63;82.50
75424;BME280;64005;55.160;36.002;2022-11-22T09:03:48;98096.84;;;0.65;81.93
75424;BME280;64005;55.160;36.002;2022-11-22T09:06:16;98097.03;;;0.69;82.14
75424;BME280;64005;55.160;36.002;2022-11-22T09:08:43;98087.00;;;0.64;81.59
75424;BME280;64005;55.160;36.002;2022-11-22T09:11:12;98084.47;;;0.68;81.42
75424;BME280;64005;55.160;36.002;2022-11-22T09:13:38;98082.78;;;0.72;82.37
75424;BME280;64005;55.160;36.002;2022-11-22T09:16:23;98081.69;;;0.73;82.38
75424;BME280;64005;55.160;36.002;2022-11-22T09:18:49;98079.06;;;0.82;81.86
75424;BME280;64005;55.160;36.002;2022-11-22T09:21:17;98080.19;;;0.80;81.67
75424;BME280;64005;55.160;36.002;2022-11-22T09:23:46;98081.53;;;0.83;82.17
75424;BME280;64005;55.160;36.002;2022-11-22T09:26:17;98070.13;;;0.76;81.72
75424;BME280;64005;55.160;36.002;2022-11-22T09:28:44;98060.88;;;0.72;81.68
75424;BME280;64005;55.160;36.002;2022-11-22T09:31:12;98076.13;;;0.78;82.04
75424;BME280;64005;55.160;36.002;2022-11-22T09:33:40;98068.75;;;0.78;82.39
75424;BME280;64005;55.160;36.002;2022-11-22T09:36:15;98071.75;;;0.77;82.06
75424;BME280;64005;55.160;36.002;2022-11-22T09:38:41;98063.31;;;0.73;82.28
75424;BME280;64005;55.160;36.002;2022-11-22T09:43:59;98059.19;;;0.76;82.67
75424;BME280;64005;55.160;36.002;2022-11-22T09:46:41;98064.13;;;0.74;81.84
75424;BME280;64005;55.160;36.002;2022-11-22T09:52:34;98072.13;;;0.70;82.48
75424;BME280;64005;55.160;36.002;2022-11-22T09:55:01;98086.34;;;0.72;82.95
75424;BME280;64005;55.160;36.002;2022-11-22T09:57:51;98075.53;;;0.81;82.44
75424;BME280;64005;55.160;36.002;2022-11-22T10:00:25;98076.56;;;0.85;82.48
75424;BME280;64005;55.160;36.002;2022-11-22T10:05:47;98075.25;;;0.83;82.46
75424;BME280;64005;55.160;36.002;2022-11-22T10:11:14;98065.84;;;0.89;82.49
75424;BME280;64005;55.160;36.002;2022-11-22T10:13:51;98056.81;;;0.88;82.71
75424;BME280;64005;55.160;36.002;2022-11-22T10:22:27;98051.03;;;0.90;82.37
75424;BME280;64005;55.160;36.002;2022-11-22T10:24:54;98061.63;;;0.96;82.34
75424;BME280;64005;55.160;36.002;2022-11-22T10:27:20;98060.00;;;0.95;83.06
75424;BME280;64005;55.160;36.002;2022-11-22T10:29:50;98060.72;;;1.01;82.35
75424;BME280;64005;55.160;36.002;2022-11-22T10:35:56;98063.16;;;1.02;82.73
75424;BME280;64005;55.160;36.002;2022-11-22T10:43:46;98056.88;;;1.02;82.34
75424;BME280;64005;55.160;36.002;2022-11-22T10:49:19;98047.94;;;0.96;82.93
75424;BME280;64005;55.160;36.002;2022-11-22T10:58:14;98013.63;;;0.85;82.53
75424;BME280;64005;55.160;36.002;2022-11-22T11:00:49;97929.97;;;0.42;82.38
75424;BME280;64005;55.160;36.002;2022-11-22T11:03:34;98034.31;;;1.10;82.96
75424;BME280;64005;55.160;36.002;2022-11-22T11:06:24;98047.22;;;1.23;82.56
75424;BME280;64005;55.160;36.002;2022-11-22T11:11:36;98044.09;;;1.30;82.12
75424;BME280;64005;55.160;36.002;2022-11-22T11:14:09;98033.72;;;1.27;82.62
75424;BME280;64005;55.160;36.002;2022-11-22T11:16:37;98035.97;;;1.25;82.70
75424;BME280;64005;55.160;36.002;2022-11-22T11:19:32;98035.84;;;1.16;82.63
75424;BME280;64005;55.160;36.002;2022-11-22T11:24:35;98025.66;;;1.03;81.88
75424;BME280;64005;55.160;36.002;2022-11-22T11:27:03;98031.34;;;1.06;82.41
75424;BME280;64005;55.160;36.002;2022-11-22T11:29:53;98021.50;;;1.05;82.29
75424;BME280;64005;55.160;36.002;2022-11-22T11:32:25;98030.75;;;1.09;83.06
75424;BME280;64005;55.160;36.002;2022-11-22T11:34:59;98025.88;;;1.06;82.72
75424;BME280;64005;55.160;36.002;2022-11-22T11:37:34;98031.13;;;1.03;82.74
75424;BME280;64005;55.160;36.002;2022-11-22T11:40:05;98035.69;;;1.07;82.62
75424;BME280;64005;55.160;36.002;2022-11-22T11:42:33;98012.53;;;1.00;82.38
75424;BME280;64005;55.160;36.002;2022-11-22T11:45:20;98020.91;;;1.08;82.31
75424;BME280;64005;55.160;36.002;2022-11-22T11:47:51;98011.66;;;1.04;82.35
75424;BME280;64005;55.160;36.002;2022-11-22T11:50:21;98009.66;;;1.10;82.97
75424;BME280;64005;55.160;36.002;2022-11-22T11:52:56;98002.78;;;1.12;82.33
75424;BME280;64005;55.160;36.002;2022-11-22T11:55:33;98009.75;;;1.05;82.17
75424;BME280;64005;55.160;36.002;2022-11-22T11:58:02;98019.59;;;1.06;82.84
75424;BME280;64005;55.160;36.002;2022-11-22T12:00:37;97916.28;;;0.42;82.62
75424;BME280;64005;55.160;36.002;2022-11-22T12:03:06;98031.94;;;1.03;82.44
75424;BME280;64005;55.160;36.002;2022-11-22T12:05:33;98031.72;;;1.00;83.02
75424;BME280;64005;55.160;36.002;2022-11-22T12:08:00;98027.38;;;0.99;83.07
75424;BME280;64005;55.160;36.002;2022-11-22T12:13:41;98033.44;;;0.96;82.84
75424;BME280;64005;55.160;36.002;2022-11-22T12:16:37;98033.44;;;0.96;82.50
75424;BME280;64005;55.160;36.002;2022-11-22T12:19:17;98028.75;;;0.96;82.78
75424;BME280;64005;55.160;36.002;2022-11-22T12:22:13;98016.72;;;0.97;82.92
75424;BME280;64005;55.160;36.002;2022-11-22T12:27:12;98009.31;;;0.98;82.40
75424;BME280;64005;55.160;36.002;2022-11-22T12:29:40;98010.13;;;0.98;83.24
75424;BME280;64005;55.160;36.002;2022-11-22T12:32:12;98008.19;;;0.99;83.25
75424;BME280;64005;55.160;36.002;2022-11-22T12:39:55;98007.88;;;1.00;82.67
75424;BME280;64005;55.160;36.002;2022-11-22T12:42:42;98019.16;;;0.99;82.80
75424;BME280;64005;55.160;36.002;2022-11-22T12:45:21;98019.16;;;0.99;82.82
75424;BME280;64005;55.160;36.002;2022-11-22T12:47:48;98019.28;;;0.89;83.41
75424;BME280;64005;55.160;36.002;2022-11-22T12:53:13;98011.00;;;0.94;83.37
75424;BME280;64005;55.160;36.002;2022-11-22T12:58:43;98000.28;;;0.97;82.44
75424;BME280;64005;55.160;36.002;2022-11-22T13:09:22;98013.16;;;0.97;82.80
75424;BME280;64005;55.160;36.002;2022-11-22T13:12:10;98001.59;;;1.00;82.69
75424;BME280;64005;55.160;36.002;2022-11-22T13:14:43;97988.81;;;0.95;82.94
75424;BME280;64005;55.160;36.002;2022-11-22T13:17:12;98011.22;;;0.97;82.83
75424;BME280;64005;55.160;36.002;2022-11-22T13:22:46;98010.19;;;0.93;83.15
75424;BME280;64005;55.160;36.002;2022-11-22T13:25:35;98003.09;;;0.92;83.32
75424;BME280;64005;55.160;36.002;2022-11-22T13:28:17;98013.72;;;0.94;83.23
75424;BME280;64005;55.160;36.002;2022-11-22T13:31:04;98006.03;;;0.96;82.53
75424;BME280;64005;55.160;36.002;2022-11-22T13:33:32;97999.47;;;0.97;83.39
75424;BME280;64005;55.160;36.002;2022-11-22T13:36:23;97993.69;;;0.98;82.67
75424;BME280;64005;55.160;36.002;2022-11-22T13:39:15;98000.00;;;0.99;83.03
75424;BME280;64005;55.160;36.002;2022-11-22T13:42:00;98014.78;;;0.98;82.57
75424;BME280;64005;55.160;36.002;2022-11-22T13:44:34;98015.06;;;0.96;82.54
75424;BME280;64005;55.160;36.002;2022-11-22T13:47:33;98015.06;;;0.96;83.39
75424;BME280;64005;55.160;36.002;2022-11-22T13:49:59;98020.94;;;0.90;83.54
75424;BME280;64005;55.160;36.002;2022-11-22T13:52:48;98027.13;;;0.95;83.16
75424;BME280;64005;55.160;36.002;2022-11-22T13:55:32;98021.56;;;1.00;82.84
75424;BME280;64005;55.160;36.002;2022-11-22T14:00:51;98019.34;;;1.02;82.98
75424;BME280;64005;55.160;36.002;2022-11-22T14:03:32;98011.75;;;0.99;82.48
75424;BME280;64005;55.160;36.002;2022-11-22T14:06:00;98014.50;;;0.99;82.99
75424;BME280;64005;55.160;36.002;2022-11-22T14:08:38;98016.09;;;1.00;83.47
75424;BME280;64005;55.160;36.002;2022-11-22T14:11:56;98016.19;;;0.95;82.83
75424;BME280;64005;55.160;36.002;2022-11-22T14:22:57;98007.97;;;0.95;83.06
75424;BME280;64005;55.160;36.002;2022-11-22T14:25:49;98001.69;;;0.95;83.48
75424;BME280;64005;55.160;36.002;2022-11-22T14:28:49;98012.84;;;0.98;82.91
75424;BME280;64005;55.160;36.002;2022-11-22T14:31:25;98008.19;;;0.99;82.86